sensor_id;sensor_type;location;lat;lon;timestamp;P1;durP1;ratioP1;P2;durP2;ratioP2
21833;SDS011;11079;51.092;3.458;2022-07-23T00:09:14;11.07;;;7.00;;
21833;SDS011;11079;51.092;3.458;2022-07-23T00:12:18;11.30;;;7.18;;
21833;SDS011;11079;51.092;3.458;2022-07-23T00:15:17;9.57;;;7.00;;
21833;SDS011;11079;51.092;3.458;2022-07-23T00:18:13;8.13;;;6.85;;
21833;SDS011;11079;51.092;3.458;2022-07-23T00:21:03;9.88;;;7.20;;
21833;SDS011;11079;51.092;3.458;2022-07-23T00:30:59;11.15;;;7.38;;
21833;SDS011;11079;51.092;3.458;2022-07-23T00:34:08;13.13;;;8.73;;
21833;SDS011;11079;51.092;3.458;2022-07-23T00:37:13;10.05;;;7.47;;
21833;SDS011;11079;51.092;3.458;2022-07-23T00:40:35;9.98;;;7.22;;
21833;SDS011;11079;51.092;3.458;2022-07-23T00:58:11;10.90;;;7.88;;
21833;SDS011;11079;51.092;3.458;2022-07-23T01:01:08;15.07;;;8.05;;
21833;SDS011;11079;51.092;3.458;2022-07-23T01:07:01;12.25;;;8.43;;
21833;SDS011;11079;51.092;3.458;2022-07-23T01:13:17;12.63;;;8.02;;
21833;SDS011;11079;51.092;3.458;2022-07-23T01:15:46;12.00;;;8.60;;
21833;SDS011;11079;51.092;3.458;2022-07-23T01:18:23;12.23;;;8.80;;
21833;SDS011;11079;51.092;3.458;2022-07-23T01:20:49;13.50;;;8.15;;
21833;SDS011;11079;51.092;3.458;2022-07-23T01:23:15;10.38;;;8.02;;
21833;SDS011;11079;51.092;3.458;2022-07-23T01:25:47;13.45;;;9.00;;
21833;SDS011;11079;51.092;3.458;2022-07-23T01:28:14;15.30;;;9.30;;
21833;SDS011;11079;51.092;3.458;2022-07-23T01:30:39;13.70;;;9.40;;
21833;SDS011;11079;51.092;3.458;2022-07-23T01:33:05;12.75;;;10.18;;
21833;SDS011;11079;51.092;3.458;2022-07-23T01:35:49;18.00;;;10.25;;
21833;SDS011;11079;51.092;3.458;2022-07-23T01:38:16;17.15;;;9.85;;
21833;SDS011;11079;51.092;3.458;2022-07-23T01:40:41;17.02;;;9.95;;
21833;SDS011;11079;51.092;3.458;2022-07-23T01:43:09;13.80;;;8.80;;
21833;SDS011;11079;51.092;3.458;2022-07-23T01:45:37;14.60;;;10.18;;
21833;SDS011;11079;51.092;3.458;2022-07-23T01:48:07;13.65;;;10.10;;
21833;SDS011;11079;51.092;3.458;2022-07-23T01:50:33;14.60;;;10.13;;
21833;SDS011;11079;51.092;3.458;2022-07-23T01:53:01;16.65;;;10.90;;
21833;SDS011;11079;51.092;3.458;2022-07-23T01:55:27;17.90;;;11.43;;
21833;SDS011;11079;51.092;3.458;2022-07-23T01:57:55;21.80;;;11.25;;
21833;SDS011;11079;51.092;3.458;2022-07-23T02:00:21;18.25;;;12.27;;
21833;SDS011;11079;51.092;3.458;2022-07-23T02:02:48;19.98;;;12.48;;
21833;SDS011;11079;51.092;3.458;2022-07-23T02:05:13;19.77;;;11.02;;
21833;SDS011;11079;51.092;3.458;2022-07-23T02:07:39;18.55;;;12.23;;
21833;SDS011;11079;51.092;3.458;2022-07-23T02:10:08;20.83;;;11.80;;
21833;SDS011;11079;51.092;3.458;2022-07-23T02:12:36;18.50;;;12.20;;
21833;SDS011;11079;51.092;3.458;2022-07-23T02:15:04;20.65;;;12.55;;
21833;SDS011;11079;51.092;3.458;2022-07-23T02:17:32;20.17;;;12.50;;
21833;SDS011;11079;51.092;3.458;2022-07-23T02:20:05;20.35;;;12.27;;
21833;SDS011;11079;51.092;3.458;2022-07-23T02:22:38;22.90;;;12.43;;
21833;SDS011;11079;51.092;3.458;2022-07-23T02:25:11;17.33;;;11.63;;
21833;SDS011;11079;51.092;3.458;2022-07-23T02:27:38;18.42;;;11.30;;
21833;SDS011;11079;51.092;3.458;2022-07-23T02:30:27;19.30;;;11.48;;
21833;SDS011;11079;51.092;3.458;2022-07-23T02:33:14;18.33;;;11.85;;
21833;SDS011;11079;51.092;3.458;2022-07-23T02:35:48;21.80;;;11.63;;
21833;SDS011;11079;51.092;3.458;2022-07-23T02:38:19;16.80;;;11.18;;
21833;SDS011;11079;51.092;3.458;2022-07-23T02:40:45;16.65;;;11.10;;
21833;SDS011;11079;51.092;3.458;2022-07-23T02:43:14;16.45;;;11.63;;
21833;SDS011;11079;51.092;3.458;2022-07-23T02:45:49;17.42;;;12.65;;
21833;SDS011;11079;51.092;3.458;2022-07-23T02:48:28;17.40;;;10.88;;
21833;SDS011;11079;51.092;3.458;2022-07-23T02:51:12;15.43;;;11.68;;
21833;SDS011;11079;51.092;3.458;2022-07-23T02:56:32;16.70;;;11.38;;
21833;SDS011;11079;51.092;3.458;2022-07-23T02:58:58;17.20;;;12.00;;
21833;SDS011;11079;51.092;3.458;2022-07-23T03:01:24;17.95;;;10.98;;
21833;SDS011;11079;51.092;3.458;2022-07-23T03:03:55;15.18;;;11.38;;
21833;SDS011;11079;51.092;3.458;2022-07-23T03:06:25;14.65;;;11.25;;
21833;SDS011;11079;51.092;3.458;2022-07-23T03:11:44;18.48;;;12.45;;
21833;SDS011;11079;51.092;3.458;2022-07-23T03:14:32;18.63;;;12.00;;
21833;SDS011;11079;51.092;3.458;2022-07-23T03:17:03;18.88;;;12.40;;
21833;SDS011;11079;51.092;3.458;2022-07-23T03:19:53;19.38;;;12.25;;
21833;SDS011;11079;51.092;3.458;2022-07-23T03:22:22;17.33;;;11.73;;
21833;SDS011;11079;51.092;3.458;2022-07-23T03:24:56;14.95;;;11.60;;
21833;SDS011;11079;51.092;3.458;2022-07-23T03:27:23;15.15;;;11.25;;
21833;SDS011;11079;51.092;3.458;2022-07-23T03:29:58;14.75;;;10.85;;
21833;SDS011;11079;51.092;3.458;2022-07-23T03:32:42;17.27;;;11.32;;
21833;SDS011;11079;51.092;3.458;2022-07-23T03:35:45;15.90;;;10.85;;
21833;SDS011;11079;51.092;3.458;2022-07-23T03:38:52;16.02;;;11.18;;
21833;SDS011;11079;51.092;3.458;2022-07-23T03:41:28;17.08;;;11.73;;
21833;SDS011;11079;51.092;3.458;2022-07-23T03:44:11;22.40;;;12.90;;
21833;SDS011;11079;51.092;3.458;2022-07-23T03:46:40;14.88;;;11.30;;
21833;SDS011;11079;51.092;3.458;2022-07-23T03:49:11;15.65;;;11.40;;
21833;SDS011;11079;51.092;3.458;2022-07-23T03:51:41;17.45;;;11.63;;
21833;SDS011;11079;51.092;3.458;2022-07-23T03:54:09;16.75;;;10.70;;
21833;SDS011;11079;51.092;3.458;2022-07-23T03:56:35;17.02;;;11.85;;
21833;SDS011;11079;51.092;3.458;2022-07-23T03:59:03;21.70;;;12.75;;
21833;SDS011;11079;51.092;3.458;2022-07-23T04:01:30;17.60;;;12.02;;
21833;SDS011;11079;51.092;3.458;2022-07-23T04:03:59;19.52;;;12.60;;
21833;SDS011;11079;51.092;3.458;2022-07-23T04:06:42;16.13;;;11.73;;
21833;SDS011;11079;51.092;3.458;2022-07-23T04:09:24;17.83;;;12.27;;
21833;SDS011;11079;51.092;3.458;2022-07-23T04:11:53;17.17;;;12.32;;
21833;SDS011;11079;51.092;3.458;2022-07-23T04:14:24;17.98;;;12.43;;
21833;SDS011;11079;51.092;3.458;2022-07-23T04:17:31;18.27;;;12.35;;
21833;SDS011;11079;51.092;3.458;2022-07-23T04:28:12;17.33;;;12.40;;
21833;SDS011;11079;51.092;3.458;2022-07-23T04:31:31;17.55;;;11.60;;
21833;SDS011;11079;51.092;3.458;2022-07-23T04:34:37;17.58;;;11.48;;
21833;SDS011;11079;51.092;3.458;2022-07-23T04:37:33;15.85;;;11.27;;
21833;SDS011;11079;51.092;3.458;2022-07-23T06:43:10;11.48;;;7.35;;
21833;SDS011;11079;51.092;3.458;2022-07-23T06:45:36;8.52;;;7.63;;
21833;SDS011;11079;51.092;3.458;2022-07-23T06:48:02;10.65;;;8.07;;
21833;SDS011;11079;51.092;3.458;2022-07-23T06:50:28;9.88;;;7.28;;
21833;SDS011;11079;51.092;3.458;2022-07-23T06:52:54;8.63;;;7.72;;
21833;SDS011;11079;51.092;3.458;2022-07-23T06:55:19;9.00;;;7.55;;
21833;SDS011;11079;51.092;3.458;2022-07-23T06:57:45;10.63;;;7.88;;
21833;SDS011;11079;51.092;3.458;2022-07-23T07:00:18;11.40;;;7.93;;
21833;SDS011;11079;51.092;3.458;2022-07-23T07:02:44;11.65;;;7.57;;
21833;SDS011;11079;51.092;3.458;2022-07-23T07:05:11;11.10;;;7.70;;
21833;SDS011;11079;51.092;3.458;2022-07-23T07:07:37;9.77;;;7.20;;
21833;SDS011;11079;51.092;3.458;2022-07-23T07:10:21;11.25;;;8.35;;
21833;SDS011;11079;51.092;3.458;2022-07-23T07:12:47;11.02;;;7.70;;
21833;SDS011;11079;51.092;3.458;2022-07-23T07:15:18;12.32;;;8.35;;
21833;SDS011;11079;51.092;3.458;2022-07-23T07:17:44;12.88;;;7.82;;
21833;SDS011;11079;51.092;3.458;2022-07-23T07:20:23;9.73;;;7.55;;
21833;SDS011;11079;51.092;3.458;2022-07-23T07:22:49;11.15;;;7.82;;
21833;SDS011;11079;51.092;3.458;2022-07-23T07:25:14;11.02;;;8.10;;
21833;SDS011;11079;51.092;3.458;2022-07-23T07:27:48;10.15;;;7.40;;
21833;SDS011;11079;51.092;3.458;2022-07-23T07:30:52;8.60;;;7.18;;
21833;SDS011;11079;51.092;3.458;2022-07-23T07:33:18;11.15;;;8.05;;
21833;SDS011;11079;51.092;3.458;2022-07-23T07:38:41;9.00;;;7.45;;
21833;SDS011;11079;51.092;3.458;2022-07-23T07:44:04;9.77;;;8.07;;
21833;SDS011;11079;51.092;3.458;2022-07-23T07:46:39;10.23;;;8.38;;
21833;SDS011;11079;51.092;3.458;2022-07-23T07:49:05;10.45;;;8.30;;
21833;SDS011;11079;51.092;3.458;2022-07-23T07:51:50;11.63;;;8.18;;
21833;SDS011;11079;51.092;3.458;2022-07-23T07:54:16;10.13;;;8.65;;
21833;SDS011;11079;51.092;3.458;2022-07-23T07:56:51;12.43;;;9.10;;
21833;SDS011;11079;51.092;3.458;2022-07-23T08:02:21;12.10;;;8.93;;
21833;SDS011;11079;51.092;3.458;2022-07-23T08:07:59;11.63;;;8.90;;
21833;SDS011;11079;51.092;3.458;2022-07-23T08:10:27;10.93;;;8.98;;
21833;SDS011;11079;51.092;3.458;2022-07-23T08:13:04;12.68;;;9.00;;
21833;SDS011;11079;51.092;3.458;2022-07-23T08:15:43;11.05;;;8.70;;
21833;SDS011;11079;51.092;3.458;2022-07-23T08:18:10;10.77;;;9.05;;
21833;SDS011;11079;51.092;3.458;2022-07-23T08:31:02;15.25;;;9.90;;
21833;SDS011;11079;51.092;3.458;2022-07-23T08:33:27;12.70;;;10.32;;
21833;SDS011;11079;51.092;3.458;2022-07-23T08:35:53;10.27;;;9.02;;
21833;SDS011;11079;51.092;3.458;2022-07-23T08:38:21;15.30;;;9.30;;
21833;SDS011;11079;51.092;3.458;2022-07-23T08:40:48;13.32;;;9.73;;
21833;SDS011;11079;51.092;3.458;2022-07-23T08:43:23;11.38;;;9.23;;
21833;SDS011;11079;51.092;3.458;2022-07-23T08:45:52;11.73;;;8.60;;
21833;SDS011;11079;51.092;3.458;2022-07-23T08:48:24;10.82;;;9.00;;
21833;SDS011;11079;51.092;3.458;2022-07-23T08:50:52;12.43;;;9.13;;
21833;SDS011;11079;51.092;3.458;2022-07-23T08:53:22;13.18;;;8.60;;
21833;SDS011;11079;51.092;3.458;2022-07-23T08:55:49;10.60;;;8.60;;
21833;SDS011;11079;51.092;3.458;2022-07-23T08:58:17;12.75;;;9.25;;
21833;SDS011;11079;51.092;3.458;2022-07-23T09:00:44;11.00;;;9.07;;
21833;SDS011;11079;51.092;3.458;2022-07-23T09:03:19;10.15;;;8.40;;
21833;SDS011;11079;51.092;3.458;2022-07-23T09:05:49;8.82;;;7.90;;
21833;SDS011;11079;51.092;3.458;2022-07-23T09:08:16;10.07;;;7.40;;
21833;SDS011;11079;51.092;3.458;2022-07-23T09:16:12;9.15;;;7.10;;
21833;SDS011;11079;51.092;3.458;2022-07-23T09:21:22;7.70;;;7.00;;
21833;SDS011;11079;51.092;3.458;2022-07-23T09:24:03;11.27;;;8.23;;
21833;SDS011;11079;51.092;3.458;2022-07-23T09:26:44;9.18;;;7.97;;
21833;SDS011;11079;51.092;3.458;2022-07-23T09:29:24;9.70;;;8.70;;
21833;SDS011;11079;51.092;3.458;2022-07-23T09:31:51;9.98;;;7.38;;
21833;SDS011;11079;51.092;3.458;2022-07-23T09:34:24;9.68;;;8.57;;
21833;SDS011;11079;51.092;3.458;2022-07-23T09:36:53;9.38;;;7.45;;
21833;SDS011;11079;51.092;3.458;2022-07-23T09:39:24;10.70;;;7.85;;
21833;SDS011;11079;51.092;3.458;2022-07-23T09:41:55;10.23;;;8.23;;
21833;SDS011;11079;51.092;3.458;2022-07-23T09:44:21;9.55;;;8.50;;
21833;SDS011;11079;51.092;3.458;2022-07-23T09:46:48;9.32;;;7.38;;
21833;SDS011;11079;51.092;3.458;2022-07-23T09:49:19;11.73;;;7.38;;
21833;SDS011;11079;51.092;3.458;2022-07-23T09:51:48;10.30;;;7.50;;
21833;SDS011;11079;51.092;3.458;2022-07-23T09:54:26;9.70;;;7.32;;
21833;SDS011;11079;51.092;3.458;2022-07-23T09:56:55;11.48;;;8.05;;
21833;SDS011;11079;51.092;3.458;2022-07-23T09:59:23;9.07;;;7.63;;
21833;SDS011;11079;51.092;3.458;2022-07-23T10:01:55;10.75;;;8.50;;
21833;SDS011;11079;51.092;3.458;2022-07-23T10:04:24;9.35;;;7.55;;
21833;SDS011;11079;51.092;3.458;2022-07-23T10:06:52;9.73;;;8.73;;
21833;SDS011;11079;51.092;3.458;2022-07-23T10:09:24;11.32;;;8.25;;
21833;SDS011;11079;51.092;3.458;2022-07-23T10:11:58;9.98;;;8.90;;
21833;SDS011;11079;51.092;3.458;2022-07-23T10:14:40;10.95;;;8.57;;
21833;SDS011;11079;51.092;3.458;2022-07-23T10:17:06;10.65;;;8.43;;
21833;SDS011;11079;51.092;3.458;2022-07-23T10:19:32;7.97;;;7.18;;
21833;SDS011;11079;51.092;3.458;2022-07-23T10:21:59;8.13;;;7.32;;
21833;SDS011;11079;51.092;3.458;2022-07-23T10:32:08;9.27;;;7.28;;
21833;SDS011;11079;51.092;3.458;2022-07-23T10:34:42;7.80;;;6.90;;
21833;SDS011;11079;51.092;3.458;2022-07-23T10:42:46;7.93;;;6.25;;
21833;SDS011;11079;51.092;3.458;2022-07-23T10:47:52;8.95;;;6.95;;
21833;SDS011;11079;51.092;3.458;2022-07-23T10:50:23;7.88;;;6.43;;
21833;SDS011;11079;51.092;3.458;2022-07-23T10:55:40;6.82;;;6.10;;
21833;SDS011;11079;51.092;3.458;2022-07-23T10:58:08;7.32;;;5.50;;
21833;SDS011;11079;51.092;3.458;2022-07-23T11:00:35;10.05;;;6.68;;
21833;SDS011;11079;51.092;3.458;2022-07-23T11:03:02;7.25;;;5.10;;
21833;SDS011;11079;51.092;3.458;2022-07-23T11:05:48;6.70;;;5.82;;
21833;SDS011;11079;51.092;3.458;2022-07-23T11:08:14;7.90;;;6.20;;
21833;SDS011;11079;51.092;3.458;2022-07-23T11:13:28;7.70;;;4.93;;
21833;SDS011;11079;51.092;3.458;2022-07-23T11:31:58;6.38;;;4.90;;
21833;SDS011;11079;51.092;3.458;2022-07-23T11:34:29;6.60;;;5.75;;
21833;SDS011;11079;51.092;3.458;2022-07-23T11:37:00;7.95;;;5.63;;
21833;SDS011;11079;51.092;3.458;2022-07-23T11:39:28;6.72;;;5.10;;
21833;SDS011;11079;51.092;3.458;2022-07-23T11:41:54;7.32;;;5.07;;
21833;SDS011;11079;51.092;3.458;2022-07-23T11:44:35;5.72;;;5.22;;
21833;SDS011;11079;51.092;3.458;2022-07-23T11:47:09;4.72;;;3.78;;
21833;SDS011;11079;51.092;3.458;2022-07-23T11:49:37;5.90;;;5.05;;
21833;SDS011;11079;51.092;3.458;2022-07-23T11:52:09;5.18;;;4.72;;
21833;SDS011;11079;51.092;3.458;2022-07-23T11:54:37;7.88;;;4.70;;
21833;SDS011;11079;51.092;3.458;2022-07-23T11:57:16;6.72;;;5.25;;
21833;SDS011;11079;51.092;3.458;2022-07-23T11:59:43;6.88;;;4.05;;
21833;SDS011;11079;51.092;3.458;2022-07-23T12:02:12;5.65;;;4.68;;
21833;SDS011;11079;51.092;3.458;2022-07-23T12:04:44;6.60;;;4.43;;
21833;SDS011;11079;51.092;3.458;2022-07-23T12:10:19;4.65;;;3.97;;
21833;SDS011;11079;51.092;3.458;2022-07-23T12:13:04;6.95;;;4.78;;
21833;SDS011;11079;51.092;3.458;2022-07-23T12:15:44;5.13;;;4.38;;
21833;SDS011;11079;51.092;3.458;2022-07-23T12:18:14;6.10;;;4.10;;
21833;SDS011;11079;51.092;3.458;2022-07-23T12:20:42;4.80;;;4.30;;
21833;SDS011;11079;51.092;3.458;2022-07-23T12:23:10;5.20;;;3.90;;
21833;SDS011;11079;51.092;3.458;2022-07-23T12:25:39;5.53;;;4.55;;
21833;SDS011;11079;51.092;3.458;2022-07-23T12:30:38;8.07;;;5.28;;
21833;SDS011;11079;51.092;3.458;2022-07-23T12:33:22;7.18;;;5.25;;
21833;SDS011;11079;51.092;3.458;2022-07-23T12:35:48;6.72;;;4.88;;
21833;SDS011;11079;51.092;3.458;2022-07-23T12:38:20;5.20;;;4.70;;
21833;SDS011;11079;51.092;3.458;2022-07-23T12:40:58;8.38;;;5.57;;
21833;SDS011;11079;51.092;3.458;2022-07-23T12:43:25;6.93;;;4.95;;
21833;SDS011;11079;51.092;3.458;2022-07-23T12:45:53;4.32;;;3.58;;
21833;SDS011;11079;51.092;3.458;2022-07-23T12:48:27;5.45;;;4.43;;
21833;SDS011;11079;51.092;3.458;2022-07-23T12:51:02;7.55;;;4.90;;
21833;SDS011;11079;51.092;3.458;2022-07-23T12:53:39;8.75;;;6.45;;
21833;SDS011;11079;51.092;3.458;2022-07-23T12:56:09;7.20;;;6.28;;
21833;SDS011;11079;51.092;3.458;2022-07-23T12:58:47;7.53;;;6.20;;
21833;SDS011;11079;51.092;3.458;2022-07-23T13:06:30;6.60;;;5.03;;
21833;SDS011;11079;51.092;3.458;2022-07-23T13:08:57;6.40;;;5.10;;
21833;SDS011;11079;51.092;3.458;2022-07-23T13:11:23;7.72;;;5.10;;
21833;SDS011;11079;51.092;3.458;2022-07-23T13:13:49;7.55;;;5.35;;
21833;SDS011;11079;51.092;3.458;2022-07-23T13:16:15;8.57;;;5.53;;
21833;SDS011;11079;51.092;3.458;2022-07-23T13:18:41;6.13;;;4.85;;
21833;SDS011;11079;51.092;3.458;2022-07-23T13:21:06;9.23;;;5.38;;
21833;SDS011;11079;51.092;3.458;2022-07-23T13:23:33;11.43;;;4.97;;
21833;SDS011;11079;51.092;3.458;2022-07-23T13:25:59;7.70;;;5.43;;
21833;SDS011;11079;51.092;3.458;2022-07-23T13:28:24;9.80;;;5.43;;
21833;SDS011;11079;51.092;3.458;2022-07-23T13:30:50;6.38;;;5.78;;
21833;SDS011;11079;51.092;3.458;2022-07-23T13:33:21;8.25;;;5.85;;
21833;SDS011;11079;51.092;3.458;2022-07-23T13:35:48;8.05;;;5.70;;
21833;SDS011;11079;51.092;3.458;2022-07-23T13:38:15;10.98;;;5.82;;
21833;SDS011;11079;51.092;3.458;2022-07-23T13:40:43;9.10;;;6.18;;
21833;SDS011;11079;51.092;3.458;2022-07-23T13:43:11;8.50;;;5.80;;
21833;SDS011;11079;51.092;3.458;2022-07-23T13:45:38;7.85;;;5.43;;
21833;SDS011;11079;51.092;3.458;2022-07-23T13:48:05;6.43;;;5.03;;
21833;SDS011;11079;51.092;3.458;2022-07-23T13:50:32;7.78;;;5.85;;
21833;SDS011;11079;51.092;3.458;2022-07-23T13:53:06;6.10;;;5.50;;
21833;SDS011;11079;51.092;3.458;2022-07-23T13:55:36;8.20;;;5.82;;
21833;SDS011;11079;51.092;3.458;2022-07-23T13:58:03;7.63;;;4.88;;
21833;SDS011;11079;51.092;3.458;2022-07-23T14:00:29;6.50;;;5.20;;
21833;SDS011;11079;51.092;3.458;2022-07-23T14:02:57;6.75;;;5.30;;
21833;SDS011;11079;51.092;3.458;2022-07-23T14:05:23;8.05;;;5.70;;
21833;SDS011;11079;51.092;3.458;2022-07-23T14:07:50;7.25;;;5.80;;
21833;SDS011;11079;51.092;3.458;2022-07-23T14:10:16;8.27;;;5.93;;
21833;SDS011;11079;51.092;3.458;2022-07-23T14:12:44;6.57;;;5.32;;
21833;SDS011;11079;51.092;3.458;2022-07-23T14:15:11;9.13;;;5.28;;
21833;SDS011;11079;51.092;3.458;2022-07-23T14:17:38;6.70;;;5.22;;
21833;SDS011;11079;51.092;3.458;2022-07-23T14:20:05;6.63;;;5.93;;
21833;SDS011;11079;51.092;3.458;2022-07-23T14:22:33;7.05;;;5.40;;
21833;SDS011;11079;51.092;3.458;2022-07-23T14:24:58;7.72;;;5.80;;
21833;SDS011;11079;51.092;3.458;2022-07-23T14:27:25;6.72;;;5.28;;
21833;SDS011;11079;51.092;3.458;2022-07-23T14:29:52;9.48;;;5.65;;
21833;SDS011;11079;51.092;3.458;2022-07-23T14:32:18;6.82;;;5.72;;
21833;SDS011;11079;51.092;3.458;2022-07-23T14:34:44;6.55;;;5.70;;
21833;SDS011;11079;51.092;3.458;2022-07-23T14:37:10;6.97;;;6.28;;
21833;SDS011;11079;51.092;3.458;2022-07-23T14:39:37;9.10;;;6.28;;
21833;SDS011;11079;51.092;3.458;2022-07-23T14:42:03;8.80;;;6.68;;
21833;SDS011;11079;51.092;3.458;2022-07-23T14:44:29;7.60;;;5.38;;
21833;SDS011;11079;51.092;3.458;2022-07-23T14:46:55;8.15;;;5.55;;
21833;SDS011;11079;51.092;3.458;2022-07-23T14:49:21;9.52;;;6.20;;
21833;SDS011;11079;51.092;3.458;2022-07-23T14:51:46;7.10;;;5.60;;
21833;SDS011;11079;51.092;3.458;2022-07-23T14:54:12;9.23;;;6.30;;
21833;SDS011;11079;51.092;3.458;2022-07-23T14:56:39;7.43;;;6.22;;
21833;SDS011;11079;51.092;3.458;2022-07-23T14:59:05;8.43;;;6.95;;
21833;SDS011;11079;51.092;3.458;2022-07-23T15:01:31;10.23;;;7.25;;
21833;SDS011;11079;51.092;3.458;2022-07-23T15:03:57;10.00;;;6.57;;
21833;SDS011;11079;51.092;3.458;2022-07-23T15:06:23;7.40;;;6.70;;
21833;SDS011;11079;51.092;3.458;2022-07-23T15:08:49;8.02;;;7.22;;
21833;SDS011;11079;51.092;3.458;2022-07-23T15:11:15;7.78;;;6.95;;
21833;SDS011;11079;51.092;3.458;2022-07-23T15:13:41;7.90;;;6.63;;
21833;SDS011;11079;51.092;3.458;2022-07-23T15:16:06;8.23;;;6.38;;
21833;SDS011;11079;51.092;3.458;2022-07-23T15:18:32;8.25;;;6.40;;
21833;SDS011;11079;51.092;3.458;2022-07-23T15:20:58;6.82;;;6.03;;
21833;SDS011;11079;51.092;3.458;2022-07-23T15:23:26;7.15;;;6.45;;
21833;SDS011;11079;51.092;3.458;2022-07-23T15:25:53;11.18;;;6.82;;
21833;SDS011;11079;51.092;3.458;2022-07-23T15:28:19;9.73;;;6.15;;
21833;SDS011;11079;51.092;3.458;2022-07-23T15:30:45;8.25;;;6.45;;
21833;SDS011;11079;51.092;3.458;2022-07-23T15:33:11;10.65;;;7.35;;
21833;SDS011;11079;51.092;3.458;2022-07-23T15:35:36;9.52;;;5.90;;
21833;SDS011;11079;51.092;3.458;2022-07-23T15:38:02;7.72;;;5.70;;
21833;SDS011;11079;51.092;3.458;2022-07-23T15:40:28;8.50;;;6.80;;
21833;SDS011;11079;51.092;3.458;2022-07-23T15:42:54;9.20;;;6.00;;
21833;SDS011;11079;51.092;3.458;2022-07-23T15:45:20;7.57;;;6.50;;
21833;SDS011;11079;51.092;3.458;2022-07-23T15:47:46;8.18;;;6.88;;
21833;SDS011;11079;51.092;3.458;2022-07-23T15:50:13;8.00;;;6.43;;
21833;SDS011;11079;51.092;3.458;2022-07-23T15:52:38;8.75;;;6.93;;
21833;SDS011;11079;51.092;3.458;2022-07-23T15:55:04;8.82;;;6.65;;
21833;SDS011;11079;51.092;3.458;2022-07-23T15:57:30;10.80;;;7.15;;
21833;SDS011;11079;51.092;3.458;2022-07-23T15:59:56;10.02;;;8.40;;
21833;SDS011;11079;51.092;3.458;2022-07-23T16:02:22;12.88;;;9.52;;
21833;SDS011;11079;51.092;3.458;2022-07-23T16:04:48;12.32;;;9.10;;
21833;SDS011;11079;51.092;3.458;2022-07-23T16:07:18;9.93;;;8.70;;
21833;SDS011;11079;51.092;3.458;2022-07-23T16:09:44;14.85;;;9.23;;
21833;SDS011;11079;51.092;3.458;2022-07-23T16:12:10;13.23;;;9.98;;
21833;SDS011;11079;51.092;3.458;2022-07-23T16:14:36;11.52;;;8.98;;
21833;SDS011;11079;51.092;3.458;2022-07-23T16:17:02;12.50;;;9.18;;
21833;SDS011;11079;51.092;3.458;2022-07-23T16:19:27;9.13;;;8.20;;
21833;SDS011;11079;51.092;3.458;2022-07-23T16:21:53;14.10;;;8.40;;
21833;SDS011;11079;51.092;3.458;2022-07-23T16:24:19;10.82;;;7.47;;
21833;SDS011;11079;51.092;3.458;2022-07-23T16:26:45;12.38;;;8.15;;
21833;SDS011;11079;51.092;3.458;2022-07-23T16:29:10;13.57;;;9.20;;
21833;SDS011;11079;51.092;3.458;2022-07-23T16:31:36;11.80;;;9.10;;
21833;SDS011;11079;51.092;3.458;2022-07-23T16:49:41;17.88;;;15.82;;
21833;SDS011;11079;51.092;3.458;2022-07-23T17:01:02;20.67;;;17.17;;
21833;SDS011;11079;51.092;3.458;2022-07-23T17:07:23;21.63;;;17.75;;
21833;SDS011;11079;51.092;3.458;2022-07-23T17:10:10;22.13;;;18.67;;
21833;SDS011;11079;51.092;3.458;2022-07-23T17:18:44;22.20;;;19.08;;
21833;SDS011;11079;51.092;3.458;2022-07-23T17:22:01;24.70;;;18.77;;
21833;SDS011;11079;51.092;3.458;2022-07-23T17:24:54;27.13;;;20.42;;
21833;SDS011;11079;51.092;3.458;2022-07-23T20:26:49;20.85;;;13.27;;
21833;SDS011;11079;51.092;3.458;2022-07-23T20:29:26;15.68;;;13.25;;
21833;SDS011;11079;51.092;3.458;2022-07-23T20:31:52;24.15;;;13.85;;
21833;SDS011;11079;51.092;3.458;2022-07-23T20:34:17;16.45;;;12.85;;
21833;SDS011;11079;51.092;3.458;2022-07-23T20:36:43;18.52;;;13.98;;
21833;SDS011;11079;51.092;3.458;2022-07-23T20:39:13;20.48;;;14.32;;
21833;SDS011;11079;51.092;3.458;2022-07-23T20:42:10;18.73;;;14.50;;
21833;SDS011;11079;51.092;3.458;2022-07-23T20:44:45;21.80;;;14.48;;
21833;SDS011;11079;51.092;3.458;2022-07-23T20:47:18;23.35;;;15.02;;
21833;SDS011;11079;51.092;3.458;2022-07-23T20:49:47;19.48;;;13.93;;
21833;SDS011;11079;51.092;3.458;2022-07-23T20:52:13;19.50;;;14.95;;
21833;SDS011;11079;51.092;3.458;2022-07-23T20:54:42;20.25;;;14.25;;
21833;SDS011;11079;51.092;3.458;2022-07-23T20:57:07;15.27;;;12.73;;
21833;SDS011;11079;51.092;3.458;2022-07-23T20:59:33;14.73;;;12.93;;
21833;SDS011;11079;51.092;3.458;2022-07-23T21:01:59;15.20;;;11.55;;
21833;SDS011;11079;51.092;3.458;2022-07-23T21:04:24;17.15;;;12.35;;
21833;SDS011;11079;51.092;3.458;2022-07-23T21:06:50;17.90;;;12.75;;
21833;SDS011;11079;51.092;3.458;2022-07-23T21:09:16;17.58;;;12.45;;
21833;SDS011;11079;51.092;3.458;2022-07-23T21:11:41;20.67;;;13.55;;
21833;SDS011;11079;51.092;3.458;2022-07-23T21:14:07;20.00;;;13.10;;
21833;SDS011;11079;51.092;3.458;2022-07-23T21:16:33;20.67;;;14.40;;
21833;SDS011;11079;51.092;3.458;2022-07-23T21:18:59;16.38;;;14.00;;
21833;SDS011;11079;51.092;3.458;2022-07-23T21:21:24;19.65;;;15.10;;
21833;SDS011;11079;51.092;3.458;2022-07-23T21:23:50;26.13;;;15.95;;
21833;SDS011;11079;51.092;3.458;2022-07-23T21:26:19;21.98;;;16.90;;
21833;SDS011;11079;51.092;3.458;2022-07-23T21:28:45;20.00;;;16.33;;
21833;SDS011;11079;51.092;3.458;2022-07-23T21:31:10;23.65;;;16.85;;
21833;SDS011;11079;51.092;3.458;2022-07-23T21:33:36;19.95;;;15.85;;
21833;SDS011;11079;51.092;3.458;2022-07-23T21:36:03;21.55;;;17.08;;
21833;SDS011;11079;51.092;3.458;2022-07-23T21:38:29;22.70;;;17.23;;
21833;SDS011;11079;51.092;3.458;2022-07-23T21:40:55;23.13;;;17.95;;
21833;SDS011;11079;51.092;3.458;2022-07-23T21:43:21;22.50;;;17.67;;
21833;SDS011;11079;51.092;3.458;2022-07-23T21:45:48;21.80;;;16.95;;
21833;SDS011;11079;51.092;3.458;2022-07-23T21:48:14;26.77;;;17.38;;
21833;SDS011;11079;51.092;3.458;2022-07-23T21:50:40;27.20;;;17.40;;
21833;SDS011;11079;51.092;3.458;2022-07-23T21:53:06;21.58;;;17.10;;
21833;SDS011;11079;51.092;3.458;2022-07-23T21:55:35;24.35;;;17.23;;
21833;SDS011;11079;51.092;3.458;2022-07-23T21:58:01;26.08;;;17.65;;
21833;SDS011;11079;51.092;3.458;2022-07-23T22:00:28;25.02;;;18.20;;
21833;SDS011;11079;51.092;3.458;2022-07-23T22:02:56;24.23;;;16.00;;
21833;SDS011;11079;51.092;3.458;2022-07-23T22:05:25;24.10;;;17.95;;
21833;SDS011;11079;51.092;3.458;2022-07-23T22:07:53;24.80;;;16.17;;
21833;SDS011;11079;51.092;3.458;2022-07-23T22:10:19;21.10;;;16.33;;
21833;SDS011;11079;51.092;3.458;2022-07-23T22:12:45;24.23;;;17.60;;
21833;SDS011;11079;51.092;3.458;2022-07-23T22:15:13;28.48;;;19.45;;
21833;SDS011;11079;51.092;3.458;2022-07-23T22:17:43;28.35;;;20.20;;
21833;SDS011;11079;51.092;3.458;2022-07-23T22:20:36;24.08;;;16.85;;
